createdAt,value
2023-05-09T00:00:25.936Z,95383.00
2023-05-09T00:01:25.991Z,95381.00
2023-05-09T00:02:26.155Z,95379.00
2023-05-09T00:03:26.122Z,95379.00
2023-05-09T00:04:26.209Z,95377.00
2023-05-09T00:05:26.461Z,95379.00
2023-05-09T00:06:26.288Z,95377.00
2023-05-09T00:07:26.323Z,95377.00
2023-05-09T00:08:26.416Z,95375.00
2023-05-09T00:09:26.465Z,95375.00
2023-05-09T00:10:26.532Z,95373.00
2023-05-09T00:11:26.588Z,95371.00
2023-05-09T00:12:26.677Z,95369.00
2023-05-09T00:13:26.765Z,95369.00
2023-05-09T00:14:26.714Z,95366.00
2023-05-09T00:15:26.721Z,95364.00
2023-05-09T00:16:26.772Z,95364.00
2023-05-09T00:17:26.830Z,95362.00
2023-05-09T00:18:26.775Z,95360.00
2023-05-09T00:19:26.780Z,95360.00
2023-05-09T00:20:26.818Z,95362.00
2023-05-09T00:21:26.884Z,95360.00
2023-05-09T00:22:26.827Z,95362.00
2023-05-09T00:23:26.829Z,95360.00
2023-05-09T00:24:26.856Z,95362.00
2023-05-09T00:25:26.848Z,95362.00
2023-05-09T00:26:26.904Z,95362.00
2023-05-09T00:27:26.906Z,95364.00
2023-05-09T00:28:26.907Z,95360.00
2023-05-09T00:29:26.923Z,95360.00
2023-05-09T00:30:26.977Z,95360.00
2023-05-09T00:31:27.000Z,95360.00
2023-05-09T00:32:26.998Z,95358.00
2023-05-09T00:33:27.052Z,95358.00
2023-05-09T00:34:27.033Z,95356.00
2023-05-09T00:35:27.052Z,95358.00
2023-05-09T00:36:27.094Z,95356.00
2023-05-09T00:37:27.169Z,95358.00
2023-05-09T00:38:27.082Z,95356.00
2023-05-09T00:39:27.093Z,95356.00
2023-05-09T00:40:27.145Z,95356.00
2023-05-09T00:41:27.117Z,95354.00
2023-05-09T00:42:27.150Z,95354.00
2023-05-09T00:43:27.144Z,95352.00
2023-05-09T00:44:27.165Z,95352.00
2023-05-09T00:45:27.247Z,95350.00
2023-05-09T00:46:27.288Z,95350.00
2023-05-09T00:47:27.356Z,95350.00
2023-05-09T00:48:27.431Z,95348.00
2023-05-09T00:49:27.444Z,95346.00
2023-05-09T00:50:27.428Z,95344.00
2023-05-09T00:51:27.469Z,95344.00
2023-05-09T00:52:27.471Z,95344.00
2023-05-09T00:53:27.594Z,95340.00
2023-05-09T00:54:27.508Z,95340.00
2023-05-09T00:55:27.489Z,95340.00
2023-05-09T00:56:27.520Z,95340.00
2023-05-09T00:57:27.547Z,95338.00
2023-05-09T00:58:27.581Z,95336.00
2023-05-09T00:59:27.555Z,95338.00
2023-05-09T01:00:27.573Z,95336.00
2023-05-09T01:01:27.620Z,95338.00
2023-05-09T01:02:27.668Z,95336.00
2023-05-09T01:03:27.693Z,95336.00
2023-05-09T01:04:27.610Z,95334.00
2023-05-09T01:05:27.662Z,95334.00
2023-05-09T01:06:27.634Z,95332.00
2023-05-09T01:07:27.656Z,95328.00
2023-05-09T01:08:27.661Z,95330.00
2023-05-09T01:09:27.777Z,95330.00
2023-05-09T01:10:27.705Z,95328.00
2023-05-09T01:11:27.732Z,95328.00
2023-05-09T01:12:27.706Z,95324.00
2023-05-09T01:13:27.794Z,95326.00
2023-05-09T01:14:27.760Z,95326.00
2023-05-09T01:15:27.799Z,95326.00
2023-05-09T01:16:27.986Z,95324.00
2023-05-09T01:17:27.965Z,95324.00
2023-05-09T01:18:27.987Z,95322.00
2023-05-09T01:19:28.013Z,95324.00
2023-05-09T01:20:28.062Z,95322.00
2023-05-09T01:21:28.149Z,95322.00
2023-05-09T01:22:28.202Z,95319.00
2023-05-09T01:23:28.190Z,95319.00
2023-05-09T01:24:28.202Z,95319.00
2023-05-09T01:25:28.340Z,95319.00
2023-05-09T01:26:28.240Z,95317.00
2023-05-09T01:27:28.231Z,95317.00
2023-05-09T01:28:28.252Z,95317.00
2023-05-09T01:29:28.275Z,95320.00
2023-05-09T01:30:28.255Z,95317.00
2023-05-09T01:31:28.309Z,95319.00
2023-05-09T01:32:28.349Z,95319.00
2023-05-09T01:33:28.315Z,95320.00
2023-05-09T01:34:28.337Z,95320.00
2023-05-09T01:35:28.350Z,95320.00
2023-05-09T01:36:28.364Z,95322.00
2023-05-09T01:37:28.337Z,95319.00
2023-05-09T01:38:28.367Z,95319.00
2023-05-09T01:39:28.403Z,95317.00
2023-05-09T01:40:28.457Z,95319.00
2023-05-09T01:41:28.592Z,95315.00
2023-05-09T01:42:28.535Z,95319.00
2023-05-09T01:43:28.590Z,95320.00
2023-05-09T01:44:28.557Z,95317.00
2023-05-09T01:45:28.567Z,95317.00
2023-05-09T01:46:28.747Z,95315.00
2023-05-09T01:47:28.646Z,95317.00
2023-05-09T01:48:28.650Z,95319.00
2023-05-09T01:49:28.651Z,95315.00
2023-05-09T01:50:28.686Z,95317.00
2023-05-09T01:51:28.666Z,95315.00
2023-05-09T01:52:28.717Z,95315.00
2023-05-09T01:53:28.747Z,95315.00
2023-05-09T01:54:28.741Z,95317.00
2023-05-09T01:55:28.776Z,95315.00
2023-05-09T01:56:28.800Z,95313.00
2023-05-09T01:57:28.914Z,95313.00
2023-05-09T01:58:28.890Z,95315.00
2023-05-09T01:59:28.846Z,95313.00
2023-05-09T02:00:28.928Z,95313.00
2023-05-09T02:01:28.887Z,95311.00
2023-05-09T02:02:29.044Z,95307.00
2023-05-09T02:03:28.994Z,95307.00
2023-05-09T02:04:28.965Z,95307.00
2023-05-09T02:05:28.960Z,95307.00
2023-05-09T02:06:28.989Z,95307.00
2023-05-09T02:07:28.998Z,95305.00
2023-05-09T02:08:29.041Z,95307.00
2023-05-09T02:09:29.064Z,95305.00
2023-05-09T02:10:29.081Z,95305.00
2023-05-09T02:11:29.104Z,95305.00
2023-05-09T02:12:29.101Z,95305.00
2023-05-09T02:13:29.243Z,95305.00
2023-05-09T02:14:29.149Z,95307.00
2023-05-09T02:15:29.168Z,95305.00
2023-05-09T02:16:29.235Z,95301.00
2023-05-09T02:17:29.218Z,95301.00
2023-05-09T02:18:29.211Z,95299.00
2023-05-09T02:19:29.249Z,95297.00
2023-05-09T02:20:29.276Z,95297.00
2023-05-09T02:21:29.376Z,95297.00
2023-05-09T02:22:29.336Z,95299.00
2023-05-09T02:23:29.347Z,95299.00
2023-05-09T02:24:29.349Z,95297.00
2023-05-09T02:25:29.380Z,95297.00
2023-05-09T02:26:29.398Z,95297.00
2023-05-09T02:27:29.497Z,95295.00
2023-05-09T02:28:29.579Z,95293.00
2023-05-09T02:29:29.550Z,95291.00
2023-05-09T02:30:29.504Z,95291.00
2023-05-09T02:31:29.603Z,95291.00
2023-05-09T02:32:29.561Z,95287.00
2023-05-09T02:33:29.554Z,95287.00
2023-05-09T02:34:29.587Z,95287.00
2023-05-09T02:35:29.570Z,95285.00
2023-05-09T02:36:29.584Z,95285.00
2023-05-09T02:37:29.575Z,95285.00
2023-05-09T02:38:29.625Z,95283.00
2023-05-09T02:39:29.633Z,95285.00
2023-05-09T02:40:29.650Z,95285.00
2023-05-09T02:41:29.654Z,95285.00
2023-05-09T02:42:29.676Z,95285.00
2023-05-09T02:43:29.677Z,95287.00
2023-05-09T02:44:29.713Z,95287.00
2023-05-09T02:45:29.829Z,95285.00
2023-05-09T02:46:29.838Z,95287.00
2023-05-09T02:47:29.867Z,95287.00
2023-05-09T02:48:29.926Z,95285.00
2023-05-09T02:49:32.398Z,95283.00
2023-05-09T02:50:29.996Z,95283.00
2023-05-09T02:51:29.950Z,95281.00
2023-05-09T02:52:30.628Z,95281.00
2023-05-09T02:53:29.953Z,95280.00
2023-05-09T02:54:29.992Z,95280.00
2023-05-09T02:55:29.962Z,95281.00
2023-05-09T02:56:29.956Z,95280.00
2023-05-09T02:57:29.947Z,95280.00
2023-05-09T02:58:29.917Z,95280.00
2023-05-09T02:59:29.910Z,95280.00
2023-05-09T03:00:29.912Z,95280.00
2023-05-09T03:01:30.038Z,95278.00
2023-05-09T03:02:29.911Z,95278.00
2023-05-09T03:03:29.935Z,95274.00
2023-05-09T03:04:29.911Z,95278.00
2023-05-09T03:05:29.901Z,95274.00
2023-05-09T03:06:29.884Z,95276.00
2023-05-09T03:07:29.897Z,95274.00
2023-05-09T03:08:29.861Z,95274.00
2023-05-09T03:09:29.846Z,95276.00
2023-05-09T03:10:29.865Z,95274.00
2023-05-09T03:11:29.822Z,95274.00
2023-05-09T03:12:29.837Z,95272.00
2023-05-09T03:13:29.821Z,95274.00
2023-05-09T03:14:29.804Z,95274.00
2023-05-09T03:15:29.824Z,95274.00
2023-05-09T03:16:30.052Z,95270.00
2023-05-09T03:17:29.940Z,95272.00
2023-05-09T03:18:29.794Z,95270.00
2023-05-09T03:19:29.785Z,95270.00
2023-05-09T03:20:29.787Z,95268.00
2023-05-09T03:21:29.752Z,95270.00
2023-05-09T03:22:29.759Z,95270.00
2023-05-09T03:23:29.755Z,95270.00
2023-05-09T03:24:29.824Z,95270.00
2023-05-09T03:25:29.875Z,95268.00
2023-05-09T03:26:29.940Z,95270.00
2023-05-09T03:27:30.033Z,95270.00
2023-05-09T03:28:30.080Z,95268.00
2023-05-09T03:29:30.104Z,95268.00
2023-05-09T03:30:30.227Z,95270.00
2023-05-09T03:31:30.293Z,95268.00
2023-05-09T03:32:30.356Z,95270.00
2023-05-09T03:33:30.482Z,95266.00
2023-05-09T03:34:30.463Z,95268.00
2023-05-09T03:35:30.505Z,95266.00
2023-05-09T03:36:30.571Z,95268.00
2023-05-09T03:37:30.641Z,95266.00
2023-05-09T03:38:30.675Z,95266.00
2023-05-09T03:39:30.644Z,95268.00
2023-05-09T03:40:30.671Z,95268.00
2023-05-09T03:41:30.680Z,95270.00
2023-05-09T03:42:30.708Z,95270.00
2023-05-09T03:43:30.765Z,95268.00
2023-05-09T03:44:30.827Z,95268.00
2023-05-09T03:45:30.903Z,95264.00
2023-05-09T03:46:31.024Z,95268.00
2023-05-09T03:47:31.029Z,95266.00
2023-05-09T03:48:31.100Z,95262.00
2023-05-09T03:49:31.260Z,95262.00
2023-05-09T03:50:31.270Z,95264.00
2023-05-09T03:51:31.268Z,95264.00
2023-05-09T03:52:31.340Z,95260.00
2023-05-09T03:53:31.403Z,95264.00
2023-05-09T03:54:31.484Z,95264.00
2023-05-09T03:55:31.551Z,95266.00
2023-05-09T03:56:31.580Z,95266.00
2023-05-09T03:57:31.643Z,95264.00
2023-05-09T03:58:31.664Z,95264.00
2023-05-09T03:59:31.731Z,95262.00
2023-05-09T04:00:31.822Z,95266.00
2023-05-09T04:01:31.851Z,95264.00
2023-05-09T04:02:32.026Z,95264.00
2023-05-09T04:03:32.009Z,95262.00
2023-05-09T04:04:31.995Z,95260.00
2023-05-09T04:05:32.160Z,95264.00
2023-05-09T04:06:32.104Z,95262.00
2023-05-09T04:07:32.185Z,95264.00
2023-05-09T04:08:32.212Z,95264.00
2023-05-09T04:09:32.291Z,95266.00
2023-05-09T04:10:32.376Z,95266.00
2023-05-09T04:11:32.402Z,95266.00
2023-05-09T04:12:32.432Z,95266.00
2023-05-09T04:13:32.505Z,95266.00
2023-05-09T04:14:32.584Z,95268.00
2023-05-09T04:15:32.643Z,95264.00
2023-05-09T04:16:32.666Z,95266.00
2023-05-09T04:17:32.700Z,95266.00
2023-05-09T04:18:32.694Z,95264.00
2023-05-09T04:19:32.703Z,95268.00
2023-05-09T04:20:32.771Z,95264.00
2023-05-09T04:21:32.921Z,95268.00
2023-05-09T04:22:32.833Z,95264.00
2023-05-09T04:23:32.872Z,95266.00
2023-05-09T04:24:32.890Z,95266.00
2023-05-09T04:25:32.915Z,95264.00
2023-05-09T04:26:33.183Z,95264.00
2023-05-09T04:27:32.948Z,95266.00
2023-05-09T04:28:32.991Z,95266.00
2023-05-09T04:29:33.029Z,95266.00
2023-05-09T04:30:33.149Z,95268.00
2023-05-09T04:31:33.245Z,95272.00
2023-05-09T04:32:33.181Z,95268.00
2023-05-09T04:33:33.186Z,95272.00
2023-05-09T04:34:33.213Z,95272.00
2023-05-09T04:35:33.230Z,95272.00
2023-05-09T04:36:33.283Z,95268.00
2023-05-09T04:37:33.352Z,95270.00
2023-05-09T04:38:33.290Z,95270.00
2023-05-09T04:39:33.296Z,95270.00
2023-05-09T04:40:33.343Z,95270.00
2023-05-09T04:41:33.332Z,95266.00
2023-05-09T04:42:33.389Z,95264.00
2023-05-09T04:43:33.389Z,95264.00
2023-05-09T04:44:33.414Z,95268.00
2023-05-09T04:45:33.477Z,95262.00
2023-05-09T04:46:33.510Z,95262.00
2023-05-09T04:47:33.606Z,95262.00
2023-05-09T04:48:33.546Z,95260.00
2023-05-09T04:49:33.570Z,95260.00
2023-05-09T04:50:33.590Z,95260.00
2023-05-09T04:51:33.624Z,95258.00
2023-05-09T04:52:33.636Z,95258.00
2023-05-09T04:53:33.764Z,95260.00
2023-05-09T04:54:33.704Z,95262.00
2023-05-09T04:55:33.723Z,95258.00
2023-05-09T04:56:33.786Z,95260.00
2023-05-09T04:57:33.769Z,95262.00
2023-05-09T04:58:33.804Z,95262.00
2023-05-09T04:59:33.842Z,95260.00
2023-05-09T05:00:40.851Z,95260.00
2023-05-09T05:01:33.865Z,95262.00
2023-05-09T05:02:33.873Z,95260.00
2023-05-09T05:03:33.863Z,95260.00
2023-05-09T05:04:33.856Z,95258.00
2023-05-09T05:05:36.969Z,95262.00
2023-05-09T05:06:33.793Z,95262.00
2023-05-09T05:07:33.807Z,95260.00
2023-05-09T05:08:33.814Z,95260.00
2023-05-09T05:09:33.885Z,95256.00
2023-05-09T05:10:33.787Z,95258.00
2023-05-09T05:11:33.795Z,95256.00
2023-05-09T05:12:33.778Z,95258.00
2023-05-09T05:13:33.750Z,95254.00
2023-05-09T05:14:33.729Z,95254.00
2023-05-09T05:15:33.754Z,95254.00
2023-05-09T05:16:33.808Z,95254.00
2023-05-09T05:17:33.753Z,95256.00
2023-05-09T05:18:33.725Z,95256.00
2023-05-09T05:19:33.710Z,95254.00
2023-05-09T05:20:33.675Z,95252.00
2023-05-09T05:21:33.698Z,95252.00
2023-05-09T05:22:33.679Z,95250.00
2023-05-09T05:23:33.683Z,95256.00
2023-05-09T05:24:33.701Z,95252.00
2023-05-09T05:25:33.776Z,95250.00
2023-05-09T05:26:33.687Z,95252.00
2023-05-09T05:27:33.655Z,95250.00
2023-05-09T05:28:33.663Z,95252.00
2023-05-09T05:29:33.640Z,95250.00
2023-05-09T05:30:34.628Z,95254.00
2023-05-09T05:31:33.760Z,95252.00
2023-05-09T05:32:33.656Z,95254.00
2023-05-09T05:33:33.597Z,95252.00
2023-05-09T05:34:33.633Z,95256.00
2023-05-09T05:35:33.623Z,95254.00
2023-05-09T05:36:33.723Z,95258.00
2023-05-09T05:37:33.598Z,95260.00
2023-05-09T05:38:33.596Z,95260.00
2023-05-09T05:39:33.561Z,95256.00
2023-05-09T05:40:33.578Z,95260.00
2023-05-09T05:41:33.824Z,95258.00
2023-05-09T05:42:33.551Z,95262.00
2023-05-09T05:43:33.528Z,95260.00
2023-05-09T05:44:33.566Z,95260.00
2023-05-09T05:45:40.563Z,95258.00
2023-05-09T05:46:33.553Z,95258.00
2023-05-09T05:47:33.562Z,95258.00
2023-05-09T05:48:33.525Z,95256.00
2023-05-09T05:49:33.531Z,95258.00
2023-05-09T05:50:33.501Z,95258.00
2023-05-09T05:51:33.497Z,95254.00
2023-05-09T05:52:33.486Z,95256.00
2023-05-09T05:53:33.511Z,95258.00
2023-05-09T05:54:33.496Z,95254.00
2023-05-09T05:55:33.445Z,95256.00
2023-05-09T05:56:33.476Z,95252.00
2023-05-09T05:57:33.540Z,95258.00
2023-05-09T05:58:33.446Z,95254.00
2023-05-09T05:59:33.440Z,95254.00
2023-05-09T06:00:33.423Z,95254.00
2023-05-09T06:01:33.436Z,95254.00
2023-05-09T06:02:33.640Z,95250.00
2023-05-09T06:03:33.472Z,95250.00
2023-05-09T06:04:33.404Z,95250.00
2023-05-09T06:05:33.396Z,95244.00
2023-05-09T06:06:33.410Z,95246.00
2023-05-09T06:07:33.748Z,95244.00
2023-05-09T06:08:33.373Z,95244.00
2023-05-09T06:09:33.425Z,95242.00
2023-05-09T06:10:34.251Z,95242.00
2023-05-09T06:11:33.509Z,95244.00
2023-05-09T06:12:33.577Z,95242.00
2023-05-09T06:13:33.736Z,95240.00
2023-05-09T06:14:33.681Z,95238.00
2023-05-09T06:15:33.774Z,95240.00
2023-05-09T06:16:33.825Z,95242.00
2023-05-09T06:17:33.986Z,95242.00
2023-05-09T06:18:33.957Z,95240.00
2023-05-09T06:19:34.013Z,95240.00
2023-05-09T06:20:34.072Z,95242.00
2023-05-09T06:21:34.124Z,95242.00
2023-05-09T06:22:34.182Z,95240.00
2023-05-09T06:23:34.215Z,95242.00
2023-05-09T06:24:36.115Z,95242.00
2023-05-09T06:25:34.374Z,95244.00
2023-05-09T06:26:34.450Z,95244.00
2023-05-09T06:27:34.741Z,95244.00
2023-05-09T06:28:34.573Z,95240.00
2023-05-09T06:29:34.702Z,95242.00
2023-05-09T06:30:34.660Z,95242.00
2023-05-09T06:31:34.793Z,95240.00
2023-05-09T06:32:34.844Z,95238.00
2023-05-09T06:33:34.878Z,95234.00
2023-05-09T06:34:34.921Z,95234.00
2023-05-09T06:35:34.993Z,95230.00
2023-05-09T06:36:35.068Z,95230.00
2023-05-09T06:37:35.081Z,95230.00
2023-05-09T06:38:35.166Z,95230.00
2023-05-09T06:39:35.238Z,95230.00
2023-05-09T06:40:35.243Z,95230.00
2023-05-09T06:41:35.255Z,95234.00
2023-05-09T06:42:35.297Z,95232.00
2023-05-09T06:43:35.386Z,95230.00
2023-05-09T06:44:35.374Z,95232.00
2023-05-09T06:45:35.509Z,95228.00
2023-05-09T06:46:35.446Z,95228.00
2023-05-09T06:47:35.872Z,95230.00
2023-05-09T06:48:35.416Z,95226.00
2023-05-09T06:49:36.276Z,95228.00
2023-05-09T06:50:35.471Z,95223.00
2023-05-09T06:51:35.523Z,95225.00
2023-05-09T06:52:35.550Z,95226.00
2023-05-09T06:53:35.563Z,95223.00
2023-05-09T06:54:35.553Z,95223.00
2023-05-09T06:55:35.598Z,95226.00
2023-05-09T06:56:35.609Z,95223.00
2023-05-09T06:57:35.602Z,95221.00
2023-05-09T06:58:35.794Z,95221.00
2023-05-09T06:59:35.618Z,95219.00
2023-05-09T07:00:35.607Z,95219.00
2023-05-09T07:01:35.748Z,95219.00
2023-05-09T07:02:35.664Z,95221.00
2023-05-09T07:03:35.648Z,95219.00
2023-05-09T07:04:35.667Z,95217.00
2023-05-09T07:05:35.774Z,95219.00
2023-05-09T07:06:35.739Z,95221.00
2023-05-09T07:07:35.764Z,95217.00
2023-05-09T07:08:35.863Z,95219.00
2023-05-09T07:09:35.875Z,95217.00
2023-05-09T07:10:35.920Z,95217.00
2023-05-09T07:11:36.028Z,95217.00
2023-05-09T07:12:36.035Z,95219.00
2023-05-09T07:13:37.309Z,95219.00
2023-05-09T07:14:36.118Z,95217.00
2023-05-09T07:15:42.002Z,95217.00
2023-05-09T07:16:37.854Z,95217.00
2023-05-09T07:17:36.319Z,95215.00
2023-05-09T07:18:36.145Z,95217.00
2023-05-09T07:19:36.283Z,95213.00
2023-05-09T07:20:36.145Z,95213.00
2023-05-09T07:21:36.140Z,95209.00
2023-05-09T07:22:37.455Z,95207.00
2023-05-09T07:23:36.161Z,95203.00
2023-05-09T07:24:36.126Z,95203.00
2023-05-09T07:25:36.143Z,95199.00
2023-05-09T07:26:36.108Z,95199.00
2023-05-09T07:27:36.200Z,95199.00
2023-05-09T07:28:36.305Z,95201.00
2023-05-09T07:29:36.172Z,95199.00
2023-05-09T07:30:36.157Z,95199.00
2023-05-09T07:31:37.427Z,95201.00
2023-05-09T07:32:36.252Z,95201.00
2023-05-09T07:33:36.375Z,95201.00
2023-05-09T07:34:36.278Z,95199.00
2023-05-09T07:35:36.299Z,95195.00
2023-05-09T07:37:36.378Z,95187.00
2023-05-09T07:38:36.819Z,95189.00
2023-05-09T07:39:36.405Z,95186.00
2023-05-09T07:40:36.462Z,95186.00
2023-05-09T07:41:36.401Z,95186.00
2023-05-09T07:42:36.408Z,95186.00
2023-05-09T07:43:36.772Z,95182.00
2023-05-09T07:44:36.473Z,95182.00
2023-05-09T07:45:36.570Z,95184.00
2023-05-09T07:46:36.437Z,95182.00
2023-05-09T07:47:36.481Z,95182.00
2023-05-09T07:48:36.459Z,95182.00
2023-05-09T07:49:36.534Z,95178.00
2023-05-09T07:50:36.466Z,95178.00
2023-05-09T07:51:36.458Z,95176.00
2023-05-09T07:52:36.457Z,95174.00
2023-05-09T07:53:36.473Z,95174.00
2023-05-09T07:54:36.490Z,95164.00
2023-05-09T07:55:36.580Z,95164.00
2023-05-09T07:56:36.594Z,95164.00
2023-05-09T07:57:36.680Z,95164.00
2023-05-09T07:58:36.748Z,95160.00
2023-05-09T07:59:36.815Z,95162.00
2023-05-09T08:00:36.825Z,95162.00
2023-05-09T08:01:36.861Z,95160.00
2023-05-09T08:02:37.059Z,95160.00
2023-05-09T08:03:37.098Z,95156.00
2023-05-09T08:04:37.176Z,95156.00
2023-05-09T08:05:37.234Z,95154.00
2023-05-09T08:06:37.205Z,95154.00
2023-05-09T08:07:37.280Z,95150.00
2023-05-09T08:08:38.898Z,95148.00
2023-05-09T08:09:37.356Z,95148.00
2023-05-09T08:10:37.466Z,95144.00
2023-05-09T08:11:37.513Z,95144.00
2023-05-09T08:12:37.561Z,95144.00
2023-05-09T08:13:37.779Z,95140.00
2023-05-09T08:14:37.667Z,95140.00
2023-05-09T08:15:37.814Z,95138.00
2023-05-09T08:16:37.816Z,95134.00
2023-05-09T08:17:37.872Z,95134.00
2023-05-09T08:18:38.329Z,95133.00
2023-05-09T08:19:37.909Z,95131.00
2023-05-09T08:20:37.929Z,95127.00
2023-05-09T08:21:38.036Z,95127.00
2023-05-09T08:22:37.939Z,95123.00
2023-05-09T08:23:37.977Z,95123.00
2023-05-09T08:24:38.316Z,95121.00
2023-05-09T08:25:38.071Z,95117.00
2023-05-09T08:26:38.181Z,95115.00
2023-05-09T08:27:38.238Z,95113.00
2023-05-09T08:28:38.238Z,95113.00
2023-05-09T08:29:38.352Z,95113.00
2023-05-09T08:30:38.315Z,95109.00
2023-05-09T08:31:38.366Z,95111.00
2023-05-09T08:32:38.380Z,95109.00
2023-05-09T08:33:40.504Z,95109.00
2023-05-09T08:34:38.830Z,95107.00
2023-05-09T08:35:38.336Z,95103.00
2023-05-09T08:36:38.362Z,95101.00
2023-05-09T08:37:38.723Z,95099.00
2023-05-09T08:38:38.335Z,95093.00
2023-05-09T08:39:38.332Z,95091.00
2023-05-09T08:40:38.328Z,95087.00
2023-05-09T08:41:38.295Z,95087.00
2023-05-09T08:42:38.319Z,95087.00
2023-05-09T08:43:38.312Z,95082.00
2023-05-09T08:44:38.297Z,95082.00
2023-05-09T08:45:38.303Z,95080.00
2023-05-09T08:46:38.297Z,95080.00
2023-05-09T08:47:38.318Z,95082.00
2023-05-09T08:48:38.286Z,95080.00
2023-05-09T08:49:38.307Z,95078.00
2023-05-09T08:50:38.367Z,95076.00
2023-05-09T08:51:38.329Z,95072.00
2023-05-09T08:52:38.251Z,95074.00
2023-05-09T08:53:38.320Z,95072.00
2023-05-09T08:54:38.219Z,95072.00
2023-05-09T08:55:38.198Z,95070.00
2023-05-09T08:56:38.232Z,95072.00
2023-05-09T08:57:38.209Z,95070.00
2023-05-09T08:58:38.213Z,95070.00
2023-05-09T08:59:38.359Z,95072.00
2023-05-09T09:00:38.151Z,95070.00
2023-05-09T09:01:38.184Z,95068.00
2023-05-09T09:02:38.180Z,95064.00
2023-05-09T09:03:38.147Z,95060.00
2023-05-09T09:04:38.221Z,95058.00
2023-05-09T09:05:41.307Z,95056.00
2023-05-09T09:06:38.150Z,95052.00
2023-05-09T09:07:38.135Z,95048.00
2023-05-09T09:08:38.141Z,95046.00
2023-05-09T09:09:38.229Z,95044.00
2023-05-09T09:10:38.127Z,95046.00
2023-05-09T09:11:38.099Z,95046.00
2023-05-09T09:12:38.075Z,95044.00
2023-05-09T09:13:38.141Z,95039.00
2023-05-09T09:14:38.084Z,95042.00
2023-05-09T09:15:38.072Z,95039.00
2023-05-09T09:16:38.106Z,95037.00
2023-05-09T09:17:38.092Z,95033.00
2023-05-09T09:18:39.597Z,95031.00
2023-05-09T09:19:38.332Z,95031.00
2023-05-09T09:20:38.105Z,95025.00
2023-05-09T09:21:38.121Z,95021.00
2023-05-09T09:22:38.047Z,95021.00
2023-05-09T09:23:38.061Z,95023.00
2023-05-09T09:24:38.060Z,95019.00
2023-05-09T09:25:38.808Z,95019.00
2023-05-09T09:26:38.045Z,95019.00
2023-05-09T09:27:38.155Z,95019.00
2023-05-09T09:28:37.998Z,95017.00
2023-05-09T09:29:38.396Z,95015.00
2023-05-09T09:30:38.026Z,95013.00
2023-05-09T09:31:38.034Z,95007.00
2023-05-09T09:32:37.978Z,95005.00
2023-05-09T09:33:37.974Z,95003.00
2023-05-09T09:34:37.977Z,95003.00
2023-05-09T09:35:38.341Z,94999.00
2023-05-09T09:36:38.003Z,95001.00
2023-05-09T09:37:37.978Z,94997.00
2023-05-09T09:38:38.015Z,94995.00
2023-05-09T09:39:38.021Z,94993.00
2023-05-09T09:40:38.000Z,94990.00
2023-05-09T09:41:38.141Z,94988.00
2023-05-09T09:42:38.045Z,94986.00
2023-05-09T09:43:38.054Z,94984.00
2023-05-09T09:44:38.088Z,94980.00
2023-05-09T09:45:38.162Z,94974.00
2023-05-09T09:46:38.188Z,94972.00
2023-05-09T09:47:38.187Z,94976.00
2023-05-09T09:48:38.197Z,94968.00
2023-05-09T09:49:38.231Z,94968.00
2023-05-09T09:50:38.350Z,94966.00
2023-05-09T09:51:38.272Z,94962.00
2023-05-09T09:52:38.282Z,94962.00
2023-05-09T09:53:38.354Z,94958.00
2023-05-09T09:54:38.389Z,94956.00
2023-05-09T09:55:38.402Z,94953.00
2023-05-09T09:56:38.409Z,94953.00
2023-05-09T09:57:38.579Z,94948.00
2023-05-09T09:58:38.525Z,94945.00
2023-05-09T09:59:38.595Z,94945.00
2023-05-09T10:00:38.876Z,94941.00
2023-05-09T10:01:38.635Z,94939.00
2023-05-09T10:02:38.691Z,94935.00
2023-05-09T10:03:38.713Z,94935.00
2023-05-09T10:04:38.682Z,94933.00
2023-05-09T10:05:38.865Z,94931.00
2023-05-09T10:06:38.785Z,94927.00
2023-05-09T10:07:38.763Z,94923.00
2023-05-09T10:08:38.776Z,94923.00
2023-05-09T10:09:38.803Z,94921.00
2023-05-09T10:10:38.783Z,94921.00
2023-05-09T10:11:38.755Z,94919.00
2023-05-09T10:12:38.765Z,94917.00
2023-05-09T10:13:38.837Z,94915.00
2023-05-09T10:14:38.784Z,94907.00
2023-05-09T10:15:52.325Z,94903.00
2023-05-09T10:16:43.835Z,94905.00
2023-05-09T10:17:38.954Z,94900.00
2023-05-09T10:18:38.913Z,94896.00
2023-05-09T10:19:38.806Z,94892.00
2023-05-09T10:20:38.872Z,94890.00
2023-05-09T10:21:38.772Z,94890.00
2023-05-09T10:22:38.778Z,94888.00
2023-05-09T10:23:38.733Z,94886.00
2023-05-09T10:24:38.799Z,94882.00
2023-05-09T10:25:38.763Z,94880.00
2023-05-09T10:26:38.760Z,94878.00
2023-05-09T10:27:38.735Z,94874.00
2023-05-09T10:28:38.708Z,94872.00
2023-05-09T10:29:38.852Z,94870.00
2023-05-09T10:30:38.755Z,94866.00
2023-05-09T10:31:38.779Z,94864.00
2023-05-09T10:32:38.720Z,94866.00
2023-05-09T10:33:38.662Z,94864.00
2023-05-09T10:34:38.671Z,94862.00
2023-05-09T10:35:38.709Z,94858.00
2023-05-09T10:36:38.676Z,94860.00
2023-05-09T10:37:38.649Z,94860.00
2023-05-09T10:38:38.686Z,94856.00
2023-05-09T10:39:38.631Z,94856.00
2023-05-09T10:40:38.894Z,94853.00
2023-05-09T10:41:38.654Z,94853.00
2023-05-09T10:42:38.626Z,94851.00
2023-05-09T10:43:38.631Z,94849.00
2023-05-09T10:44:38.643Z,94843.00
2023-05-09T10:45:38.710Z,94843.00
2023-05-09T10:46:38.710Z,94845.00
2023-05-09T10:47:38.684Z,94839.00
2023-05-09T10:48:38.721Z,94839.00
2023-05-09T10:49:38.587Z,94831.00
2023-05-09T10:50:38.606Z,94831.00
2023-05-09T10:51:38.577Z,94825.00
2023-05-09T10:52:38.588Z,94823.00
2023-05-09T10:53:38.584Z,94827.00
2023-05-09T10:54:38.643Z,94827.00
2023-05-09T10:55:38.596Z,94823.00
2023-05-09T10:56:38.515Z,94817.00
2023-05-09T10:57:38.599Z,94817.00
2023-05-09T10:58:38.575Z,94815.00
2023-05-09T10:59:38.507Z,94815.00
2023-05-09T11:00:38.888Z,94809.00
2023-05-09T11:01:38.673Z,94807.00
2023-05-09T11:02:38.511Z,94804.00
2023-05-09T11:03:38.575Z,94802.00
2023-05-09T11:04:38.505Z,94800.00
2023-05-09T11:05:38.894Z,94796.00
2023-05-09T11:06:38.493Z,94790.00
2023-05-09T11:07:38.540Z,94788.00
2023-05-09T11:08:38.455Z,94784.00
2023-05-09T11:09:38.602Z,94782.00
2023-05-09T11:10:38.450Z,94784.00
2023-05-09T11:11:38.454Z,94776.00
2023-05-09T11:12:38.457Z,94780.00
2023-05-09T11:13:38.425Z,94778.00
2023-05-09T11:14:38.415Z,94776.00
2023-05-09T11:15:38.408Z,94768.00
2023-05-09T11:16:38.932Z,94768.00
2023-05-09T11:17:38.527Z,94768.00
2023-05-09T11:18:38.447Z,94764.00
2023-05-09T11:19:39.382Z,94764.00
2023-05-09T11:20:38.388Z,94762.00
2023-05-09T11:21:38.412Z,94759.00
2023-05-09T11:22:38.413Z,94755.00
2023-05-09T11:23:38.364Z,94757.00
2023-05-09T11:24:38.328Z,94755.00
2023-05-09T11:25:38.330Z,94755.00
2023-05-09T11:26:38.355Z,94751.00
2023-05-09T11:27:38.372Z,94747.00
2023-05-09T11:28:38.361Z,94749.00
2023-05-09T11:29:38.393Z,94749.00
2023-05-09T11:30:38.413Z,94745.00
2023-05-09T11:31:39.059Z,94741.00
2023-05-09T11:32:38.445Z,94739.00
2023-05-09T11:33:38.501Z,94739.00
2023-05-09T11:34:38.506Z,94737.00
2023-05-09T11:35:38.395Z,94737.00
2023-05-09T11:36:38.952Z,94733.00
2023-05-09T11:37:38.393Z,94735.00
2023-05-09T11:38:38.460Z,94733.00
2023-05-09T11:39:38.447Z,94731.00
2023-05-09T11:40:38.440Z,94727.00
2023-05-09T11:41:38.501Z,94729.00
2023-05-09T11:42:38.481Z,94729.00
2023-05-09T11:43:38.552Z,94720.00
2023-05-09T11:44:38.596Z,94720.00
2023-05-09T11:45:38.652Z,94716.00